sensor_id;sensor_type;location;lat;lon;timestamp;pressure;altitude;pressure_sealevel;temperature;humidity
56719;BME280;42597;40.636;0.278;2024-02-16T00:00:23;97229.84;;;16.42;81.64
56719;BME280;42597;40.636;0.278;2024-02-16T00:02:48;97244.50;;;16.82;79.13
56719;BME280;42597;40.636;0.278;2024-02-16T00:05:14;97242.16;;;16.84;78.28
56719;BME280;42597;40.636;0.278;2024-02-16T00:07:40;97235.06;;;16.72;78.80
56719;BME280;42597;40.636;0.278;2024-02-16T00:10:06;97229.44;;;16.36;81.18
56719;BME280;42597;40.636;0.278;2024-02-16T00:12:33;97227.59;;;15.07;90.97
56719;BME280;42597;40.636;0.278;2024-02-16T00:14:59;97225.34;;;16.05;84.68
56719;BME280;42597;40.636;0.278;2024-02-16T00:17:26;97221.28;;;16.43;81.51
56719;BME280;42597;40.636;0.278;2024-02-16T00:19:55;97219.44;;;16.65;80.04
56719;BME280;42597;40.636;0.278;2024-02-16T00:22:20;97216.41;;;16.77;79.09
56719;BME280;42597;40.636;0.278;2024-02-16T00:24:46;97222.66;;;16.82;77.95
56719;BME280;42597;40.636;0.278;2024-02-16T00:27:12;97225.63;;;16.55;80.25
56719;BME280;42597;40.636;0.278;2024-02-16T00:29:38;97216.28;;;16.56;80.07
56719;BME280;42597;40.636;0.278;2024-02-16T00:32:07;97217.16;;;16.74;78.82
56719;BME280;42597;40.636;0.278;2024-02-16T00:34:33;97216.41;;;16.77;78.25
56719;BME280;42597;40.636;0.278;2024-02-16T00:37:00;97227.31;;;16.77;78.52
56719;BME280;42597;40.636;0.278;2024-02-16T00:39:25;97235.03;;;16.65;78.76
56719;BME280;42597;40.636;0.278;2024-02-16T00:41:51;97242.81;;;16.63;78.89
56719;BME280;42597;40.636;0.278;2024-02-16T00:44:17;97241.94;;;15.41;88.48
56719;BME280;42597;40.636;0.278;2024-02-16T00:46:43;97240.09;;;14.48;96.51
56719;BME280;42597;40.636;0.278;2024-02-16T00:49:09;97244.13;;;14.57;96.80
56719;BME280;42597;40.636;0.278;2024-02-16T00:51:38;97248.53;;;15.03;93.44
56719;BME280;42597;40.636;0.278;2024-02-16T00:54:04;97244.69;;;15.86;86.84
56719;BME280;42597;40.636;0.278;2024-02-16T00:56:32;97233.91;;;16.07;83.93
56719;BME280;42597;40.636;0.278;2024-02-16T00:58:58;97239.53;;;16.36;82.65
56719;BME280;42597;40.636;0.278;2024-02-16T01:01:24;97229.47;;;16.47;81.80
56719;BME280;42597;40.636;0.278;2024-02-16T01:03:51;97231.09;;;16.59;80.64
56719;BME280;42597;40.636;0.278;2024-02-16T01:06:17;97240.50;;;16.68;80.05
56719;BME280;42597;40.636;0.278;2024-02-16T01:08:43;97236.97;;;16.68;79.89
56719;BME280;42597;40.636;0.278;2024-02-16T01:11:09;97242.06;;;16.66;79.66
56719;BME280;42597;40.636;0.278;2024-02-16T01:13:35;97244.34;;;16.60;80.03
56719;BME280;42597;40.636;0.278;2024-02-16T01:16:00;97239.59;;;16.43;80.76
56719;BME280;42597;40.636;0.278;2024-02-16T01:18:28;97237.38;;;16.66;79.64
56719;BME280;42597;40.636;0.278;2024-02-16T01:20:54;97234.22;;;16.64;79.85
56719;BME280;42597;40.636;0.278;2024-02-16T01:23:28;97229.59;;;16.68;79.43
56719;BME280;42597;40.636;0.278;2024-02-16T01:25:54;97235.06;;;16.68;79.49
56719;BME280;42597;40.636;0.278;2024-02-16T01:28:19;97239.34;;;16.69;79.14
56719;BME280;42597;40.636;0.278;2024-02-16T01:30:45;97230.38;;;16.65;79.42
56719;BME280;42597;40.636;0.278;2024-02-16T01:33:10;97219.13;;;16.77;78.80
56719;BME280;42597;40.636;0.278;2024-02-16T01:35:36;97217.88;;;16.64;79.62
56719;BME280;42597;40.636;0.278;2024-02-16T01:38:02;97217.19;;;16.82;78.73
56719;BME280;42597;40.636;0.278;2024-02-16T01:40:28;97201.84;;;16.56;79.90
56719;BME280;42597;40.636;0.278;2024-02-16T01:42:54;97203.84;;;16.62;79.84
56719;BME280;42597;40.636;0.278;2024-02-16T01:45:20;97201.41;;;16.39;81.22
56719;BME280;42597;40.636;0.278;2024-02-16T01:47:49;97198.34;;;16.55;79.90
56719;BME280;42597;40.636;0.278;2024-02-16T01:50:16;97191.38;;;16.65;79.78
56719;BME280;42597;40.636;0.278;2024-02-16T01:52:47;97191.47;;;16.83;78.60
56719;BME280;42597;40.636;0.278;2024-02-16T01:55:13;97182.91;;;16.88;78.59
56719;BME280;42597;40.636;0.278;2024-02-16T01:57:40;97171.59;;;16.82;78.60
56719;BME280;42597;40.636;0.278;2024-02-16T02:00:08;97171.22;;;16.91;78.00
56719;BME280;42597;40.636;0.278;2024-02-16T02:02:34;97170.31;;;16.62;79.18
56719;BME280;42597;40.636;0.278;2024-02-16T02:05:01;97164.41;;;16.42;80.47
56719;BME280;42597;40.636;0.278;2024-02-16T02:07:27;97161.41;;;15.92;83.93
56719;BME280;42597;40.636;0.278;2024-02-16T02:09:53;97165.53;;;14.82;92.34
56719;BME280;42597;40.636;0.278;2024-02-16T02:12:18;97158.34;;;15.01;92.09
56719;BME280;42597;40.636;0.278;2024-02-16T02:14:44;97145.13;;;16.02;85.45
56719;BME280;42597;40.636;0.278;2024-02-16T02:17:09;97139.91;;;16.56;81.42
56719;BME280;42597;40.636;0.278;2024-02-16T02:19:35;97144.56;;;16.45;81.42
56719;BME280;42597;40.636;0.278;2024-02-16T02:22:01;97137.50;;;16.37;82.04
56719;BME280;42597;40.636;0.278;2024-02-16T02:24:27;97141.41;;;16.43;81.81
56719;BME280;42597;40.636;0.278;2024-02-16T02:26:52;97146.91;;;16.53;80.88
56719;BME280;42597;40.636;0.278;2024-02-16T02:29:18;97143.41;;;16.53;80.53
56719;BME280;42597;40.636;0.278;2024-02-16T02:31:43;97152.28;;;16.28;82.02
56719;BME280;42597;40.636;0.278;2024-02-16T02:34:09;97146.91;;;16.50;80.94
56719;BME280;42597;40.636;0.278;2024-02-16T02:36:35;97145.00;;;16.61;79.92
56719;BME280;42597;40.636;0.278;2024-02-16T02:39:01;97148.09;;;16.63;79.59
56719;BME280;42597;40.636;0.278;2024-02-16T02:41:27;97141.47;;;16.57;80.24
56719;BME280;42597;40.636;0.278;2024-02-16T02:43:52;97131.38;;;16.68;79.57
56719;BME280;42597;40.636;0.278;2024-02-16T02:46:18;97134.00;;;16.40;81.11
56719;BME280;42597;40.636;0.278;2024-02-16T02:48:44;97129.78;;;16.57;80.30
56719;BME280;42597;40.636;0.278;2024-02-16T02:51:10;97132.19;;;16.72;78.51
56719;BME280;42597;40.636;0.278;2024-02-16T02:53:36;97128.66;;;16.68;79.15
56719;BME280;42597;40.636;0.278;2024-02-16T02:56:02;97134.00;;;16.33;80.99
56719;BME280;42597;40.636;0.278;2024-02-16T02:58:28;97133.28;;;15.73;81.82
56719;BME280;42597;40.636;0.278;2024-02-16T03:00:54;97134.91;;;14.52;87.38
56719;BME280;42597;40.636;0.278;2024-02-16T03:03:20;97131.06;;;14.94;86.77
56719;BME280;42597;40.636;0.278;2024-02-16T03:05:46;97117.63;;;15.63;85.22
56719;BME280;42597;40.636;0.278;2024-02-16T03:08:12;97118.97;;;15.91;83.40
56719;BME280;42597;40.636;0.278;2024-02-16T03:10:38;97120.31;;;16.25;81.69
56719;BME280;42597;40.636;0.278;2024-02-16T03:13:04;97123.44;;;16.20;80.94
56719;BME280;42597;40.636;0.278;2024-02-16T03:15:32;97123.81;;;15.57;80.04
56719;BME280;42597;40.636;0.278;2024-02-16T03:17:59;97112.72;;;15.28;80.79
56719;BME280;42597;40.636;0.278;2024-02-16T03:20:24;97119.78;;;15.36;81.80
56719;BME280;42597;40.636;0.278;2024-02-16T03:22:50;97117.53;;;15.49;81.29
56719;BME280;42597;40.636;0.278;2024-02-16T03:25:16;97114.47;;;15.58;80.19
56719;BME280;42597;40.636;0.278;2024-02-16T03:27:42;97118.63;;;14.93;80.62
56719;BME280;42597;40.636;0.278;2024-02-16T03:30:08;97110.66;;;14.73;85.97
56719;BME280;42597;40.636;0.278;2024-02-16T03:32:33;97113.28;;;15.03;82.61
56719;BME280;42597;40.636;0.278;2024-02-16T03:34:59;97112.47;;;15.03;84.63
56719;BME280;42597;40.636;0.278;2024-02-16T03:37:25;97121.75;;;15.43;83.73
56719;BME280;42597;40.636;0.278;2024-02-16T03:39:51;97122.44;;;15.81;83.16
56719;BME280;42597;40.636;0.278;2024-02-16T03:42:18;97120.97;;;15.97;82.65
56719;BME280;42597;40.636;0.278;2024-02-16T03:44:45;97114.16;;;15.66;81.14
56719;BME280;42597;40.636;0.278;2024-02-16T03:47:11;97115.53;;;15.42;82.17
56719;BME280;42597;40.636;0.278;2024-02-16T03:49:37;97122.44;;;15.81;83.85
56719;BME280;42597;40.636;0.278;2024-02-16T03:52:03;97124.97;;;16.18;81.66
56719;BME280;42597;40.636;0.278;2024-02-16T03:54:29;97144.25;;;15.88;81.25
56719;BME280;42597;40.636;0.278;2024-02-16T03:56:55;97140.56;;;14.73;85.67
56719;BME280;42597;40.636;0.278;2024-02-16T03:59:21;97142.59;;;15.21;85.71
56719;BME280;42597;40.636;0.278;2024-02-16T04:01:47;97140.84;;;15.02;84.69
56719;BME280;42597;40.636;0.278;2024-02-16T04:04:12;97137.06;;;15.62;83.44
56719;BME280;42597;40.636;0.278;2024-02-16T04:06:39;97142.22;;;15.70;84.21
56719;BME280;42597;40.636;0.278;2024-02-16T04:09:04;97140.78;;;15.91;83.15
56719;BME280;42597;40.636;0.278;2024-02-16T04:11:34;97145.56;;;16.15;81.84
56719;BME280;42597;40.636;0.278;2024-02-16T04:14:00;97154.59;;;16.26;81.01
56719;BME280;42597;40.636;0.278;2024-02-16T04:16:26;97162.38;;;16.24;81.03
56719;BME280;42597;40.636;0.278;2024-02-16T04:18:52;97162.38;;;16.24;80.45
56719;BME280;42597;40.636;0.278;2024-02-16T04:21:18;97166.97;;;16.06;81.76
56719;BME280;42597;40.636;0.278;2024-02-16T04:23:44;97161.47;;;16.02;81.10
56719;BME280;42597;40.636;0.278;2024-02-16T04:26:10;97169.28;;;16.00;82.07
56719;BME280;42597;40.636;0.278;2024-02-16T04:28:36;97168.38;;;15.82;83.15
56719;BME280;42597;40.636;0.278;2024-02-16T04:31:01;97163.69;;;15.83;84.31
56719;BME280;42597;40.636;0.278;2024-02-16T04:33:27;97174.97;;;15.33;87.42
56719;BME280;42597;40.636;0.278;2024-02-16T04:35:53;97168.00;;;15.39;88.20
56719;BME280;42597;40.636;0.278;2024-02-16T04:38:18;97173.91;;;15.96;84.01
56719;BME280;42597;40.636;0.278;2024-02-16T04:40:45;97181.00;;;16.08;82.82
56719;BME280;42597;40.636;0.278;2024-02-16T04:43:11;97188.06;;;16.16;81.81
56719;BME280;42597;40.636;0.278;2024-02-16T04:45:37;97199.63;;;16.02;82.42
56719;BME280;42597;40.636;0.278;2024-02-16T04:48:04;97201.34;;;15.25;87.15
56719;BME280;42597;40.636;0.278;2024-02-16T04:50:31;97211.19;;;15.00;90.10
56719;BME280;42597;40.636;0.278;2024-02-16T04:52:57;97210.13;;;14.44;95.96
56719;BME280;42597;40.636;0.278;2024-02-16T04:55:23;97197.91;;;14.95;92.67
56719;BME280;42597;40.636;0.278;2024-02-16T04:57:48;97200.25;;;14.93;92.72
56719;BME280;42597;40.636;0.278;2024-02-16T05:00:14;97198.84;;;15.50;88.01
56719;BME280;42597;40.636;0.278;2024-02-16T05:02:40;97206.31;;;15.61;86.75
56719;BME280;42597;40.636;0.278;2024-02-16T05:05:05;97213.72;;;15.19;89.64
56719;BME280;42597;40.636;0.278;2024-02-16T05:07:31;97220.34;;;14.85;92.89
56719;BME280;42597;40.636;0.278;2024-02-16T05:09:57;97225.50;;;14.60;94.55
56719;BME280;42597;40.636;0.278;2024-02-16T05:12:24;97230.66;;;15.02;92.09
56719;BME280;42597;40.636;0.278;2024-02-16T05:14:50;97228.25;;;14.97;91.56
56719;BME280;42597;40.636;0.278;2024-02-16T05:17:16;97223.28;;;14.12;98.26
56719;BME280;42597;40.636;0.278;2024-02-16T05:19:42;97223.47;;;14.53;96.68
56719;BME280;42597;40.636;0.278;2024-02-16T05:22:07;97225.41;;;14.86;93.77
56719;BME280;42597;40.636;0.278;2024-02-16T05:24:33;97230.06;;;15.23;90.47
56719;BME280;42597;40.636;0.278;2024-02-16T05:26:59;97233.03;;;15.07;92.39
56719;BME280;42597;40.636;0.278;2024-02-16T05:29:26;97240.56;;;14.87;92.58
56719;BME280;42597;40.636;0.278;2024-02-16T05:31:52;97242.53;;;14.00;99.93
56719;BME280;42597;40.636;0.278;2024-02-16T05:34:18;97250.34;;;13.32;100.00
56719;BME280;42597;40.636;0.278;2024-02-16T05:36:43;97251.84;;;13.53;100.00
56719;BME280;42597;40.636;0.278;2024-02-16T05:39:10;97245.28;;;14.56;98.81
56719;BME280;42597;40.636;0.278;2024-02-16T05:41:46;97247.63;;;14.31;97.45
56719;BME280;42597;40.636;0.278;2024-02-16T05:44:12;97245.78;;;14.66;95.91
56719;BME280;42597;40.636;0.278;2024-02-16T05:46:38;97242.31;;;15.02;93.19
56719;BME280;42597;40.636;0.278;2024-02-16T05:49:04;97242.16;;;14.88;93.08
56719;BME280;42597;40.636;0.278;2024-02-16T05:51:39;97253.31;;;15.13;91.06
56719;BME280;42597;40.636;0.278;2024-02-16T05:54:06;97247.31;;;14.97;92.06
56719;BME280;42597;40.636;0.278;2024-02-16T05:56:33;97260.59;;;13.66;100.00
56719;BME280;42597;40.636;0.278;2024-02-16T05:59:02;97257.63;;;13.28;100.00
56719;BME280;42597;40.636;0.278;2024-02-16T06:01:31;97262.47;;;13.19;100.00
56719;BME280;42597;40.636;0.278;2024-02-16T06:03:57;97265.75;;;13.09;100.00
56719;BME280;42597;40.636;0.278;2024-02-16T06:06:22;97263.53;;;13.34;100.00
56719;BME280;42597;40.636;0.278;2024-02-16T06:08:48;97261.41;;;12.85;100.00
56719;BME280;42597;40.636;0.278;2024-02-16T06:11:13;97261.56;;;12.92;100.00
56719;BME280;42597;40.636;0.278;2024-02-16T06:13:40;97267.63;;;13.05;100.00
56719;BME280;42597;40.636;0.278;2024-02-16T06:16:06;97261.72;;;13.42;100.00
56719;BME280;42597;40.636;0.278;2024-02-16T06:18:34;97262.63;;;13.07;100.00
56719;BME280;42597;40.636;0.278;2024-02-16T06:21:00;97267.22;;;13.68;100.00
56719;BME280;42597;40.636;0.278;2024-02-16T06:23:25;97261.84;;;13.49;100.00
56719;BME280;42597;40.636;0.278;2024-02-16T06:25:51;97272.66;;;13.45;100.00
56719;BME280;42597;40.636;0.278;2024-02-16T06:28:17;97264.56;;;13.49;100.00
56719;BME280;42597;40.636;0.278;2024-02-16T06:30:42;97279.72;;;13.50;100.00
56719;BME280;42597;40.636;0.278;2024-02-16T06:33:08;97283.56;;;13.49;100.00
56719;BME280;42597;40.636;0.278;2024-02-16T06:35:33;97277.31;;;13.45;100.00
56719;BME280;42597;40.636;0.278;2024-02-16T06:37:59;97281.97;;;13.67;100.00
56719;BME280;42597;40.636;0.278;2024-02-16T06:40:24;97296.03;;;13.11;100.00
56719;BME280;42597;40.636;0.278;2024-02-16T06:43:00;97279.06;;;11.89;100.00
56719;BME280;42597;40.636;0.278;2024-02-16T06:45:26;97282.69;;;12.64;100.00
56719;BME280;42597;40.636;0.278;2024-02-16T06:47:51;97289.75;;;12.88;100.00
56719;BME280;42597;40.636;0.278;2024-02-16T06:50:17;97294.59;;;12.59;100.00
56719;BME280;42597;40.636;0.278;2024-02-16T06:52:42;97289.59;;;12.61;100.00
56719;BME280;42597;40.636;0.278;2024-02-16T06:55:08;97290.19;;;13.28;100.00
56719;BME280;42597;40.636;0.278;2024-02-16T06:57:39;97309.69;;;13.15;100.00
56719;BME280;42597;40.636;0.278;2024-02-16T07:00:12;97310.94;;;13.21;100.00
56719;BME280;42597;40.636;0.278;2024-02-16T07:02:38;97316.84;;;12.33;100.00
56719;BME280;42597;40.636;0.278;2024-02-16T07:05:06;97306.88;;;12.37;100.00
56719;BME280;42597;40.636;0.278;2024-02-16T07:07:32;97302.00;;;14.31;100.00
56719;BME280;42597;40.636;0.278;2024-02-16T07:10:01;97320.75;;;13.91;97.77
56719;BME280;42597;40.636;0.278;2024-02-16T07:12:27;97313.94;;;13.16;100.00
56719;BME280;42597;40.636;0.278;2024-02-16T07:14:52;97330.09;;;13.47;100.00
56719;BME280;42597;40.636;0.278;2024-02-16T07:17:18;97331.16;;;13.04;100.00
56719;BME280;42597;40.636;0.278;2024-02-16T07:19:44;97331.28;;;12.72;100.00
56719;BME280;42597;40.636;0.278;2024-02-16T07:22:10;97336.88;;;12.99;100.00
56719;BME280;42597;40.636;0.278;2024-02-16T07:24:37;97330.00;;;12.85;98.83
56719;BME280;42597;40.636;0.278;2024-02-16T07:27:03;97322.44;;;12.40;100.00
56719;BME280;42597;40.636;0.278;2024-02-16T07:29:29;97340.28;;;12.96;99.56
56719;BME280;42597;40.636;0.278;2024-02-16T07:31:54;97334.91;;;12.45;100.00
56719;BME280;42597;40.636;0.278;2024-02-16T07:34:21;97340.81;;;12.66;97.39
56719;BME280;42597;40.636;0.278;2024-02-16T07:36:47;97341.25;;;13.65;94.90
56719;BME280;42597;40.636;0.278;2024-02-16T07:39:12;97335.94;;;12.91;99.96
56719;BME280;42597;40.636;0.278;2024-02-16T07:41:38;97334.44;;;13.13;96.16
56719;BME280;42597;40.636;0.278;2024-02-16T07:44:04;97343.81;;;12.61;98.39
56719;BME280;42597;40.636;0.278;2024-02-16T07:46:30;97350.41;;;13.18;96.50
56719;BME280;42597;40.636;0.278;2024-02-16T07:48:55;97356.03;;;12.90;95.17
56719;BME280;42597;40.636;0.278;2024-02-16T07:51:21;97355.44;;;13.16;96.19
56719;BME280;42597;40.636;0.278;2024-02-16T07:53:47;97353.34;;;12.55;93.89
56719;BME280;42597;40.636;0.278;2024-02-16T07:56:12;97348.56;;;12.83;96.02
56719;BME280;42597;40.636;0.278;2024-02-16T07:58:41;97358.50;;;12.60;95.49
56719;BME280;42597;40.636;0.278;2024-02-16T08:01:12;97347.84;;;13.06;94.16
56719;BME280;42597;40.636;0.278;2024-02-16T08:03:40;97359.19;;;13.70;90.93
56719;BME280;42597;40.636;0.278;2024-02-16T08:06:06;97354.41;;;12.85;97.87
56719;BME280;42597;40.636;0.278;2024-02-16T08:08:32;97355.59;;;13.23;92.19
56719;BME280;42597;40.636;0.278;2024-02-16T08:10:57;97362.44;;;12.63;95.65
56719;BME280;42597;40.636;0.278;2024-02-16T08:13:23;97368.28;;;13.19;96.41
56719;BME280;42597;40.636;0.278;2024-02-16T08:15:49;97358.91;;;13.98;93.13
56719;BME280;42597;40.636;0.278;2024-02-16T08:18:17;97355.63;;;13.46;89.80
56719;BME280;42597;40.636;0.278;2024-02-16T08:20:43;97381.56;;;12.54;93.73
56719;BME280;42597;40.636;0.278;2024-02-16T08:23:08;97382.19;;;13.99;91.21
56719;BME280;42597;40.636;0.278;2024-02-16T08:25:34;97370.44;;;13.49;89.87
56719;BME280;42597;40.636;0.278;2024-02-16T08:28:00;97373.94;;;13.92;94.56
56719;BME280;42597;40.636;0.278;2024-02-16T08:30:26;97369.75;;;13.98;91.38
56719;BME280;42597;40.636;0.278;2024-02-16T08:32:52;97395.03;;;12.66;92.90
56719;BME280;42597;40.636;0.278;2024-02-16T08:35:19;97385.63;;;14.19;93.07
56719;BME280;42597;40.636;0.278;2024-02-16T08:37:45;97391.75;;;13.70;88.13
56719;BME280;42597;40.636;0.278;2024-02-16T08:40:12;97382.00;;;13.46;89.68
56719;BME280;42597;40.636;0.278;2024-02-16T08:42:40;97388.53;;;14.29;89.36
56719;BME280;42597;40.636;0.278;2024-02-16T08:45:08;97389.22;;;13.19;88.97
56719;BME280;42597;40.636;0.278;2024-02-16T08:47:33;97390.00;;;13.58;95.33
56719;BME280;42597;40.636;0.278;2024-02-16T08:49:59;97394.41;;;13.08;88.30
56719;BME280;42597;40.636;0.278;2024-02-16T08:52:26;97388.19;;;12.72;90.69
56719;BME280;42597;40.636;0.278;2024-02-16T08:54:51;97384.88;;;13.33;88.05
56719;BME280;42597;40.636;0.278;2024-02-16T08:57:17;97398.88;;;13.00;90.39
56719;BME280;42597;40.636;0.278;2024-02-16T08:59:42;97391.97;;;13.80;91.82
56719;BME280;42597;40.636;0.278;2024-02-16T09:02:09;97396.31;;;13.43;89.79
56719;BME280;42597;40.636;0.278;2024-02-16T09:04:35;97386.19;;;14.05;88.39
56719;BME280;42597;40.636;0.278;2024-02-16T09:07:02;97397.91;;;13.67;84.19
56719;BME280;42597;40.636;0.278;2024-02-16T09:09:27;97421.94;;;12.91;85.80
56719;BME280;42597;40.636;0.278;2024-02-16T09:11:53;97401.50;;;13.51;84.13
56719;BME280;42597;40.636;0.278;2024-02-16T09:14:19;97415.25;;;13.04;85.18
56719;BME280;42597;40.636;0.278;2024-02-16T09:16:45;97421.69;;;13.93;83.96
56719;BME280;42597;40.636;0.278;2024-02-16T09:19:13;97432.84;;;12.94;84.96
56719;BME280;42597;40.636;0.278;2024-02-16T09:21:39;97421.94;;;13.10;86.33
56719;BME280;42597;40.636;0.278;2024-02-16T09:24:04;97430.78;;;13.81;86.83
56719;BME280;42597;40.636;0.278;2024-02-16T09:26:36;97434.97;;;13.20;84.91
56719;BME280;42597;40.636;0.278;2024-02-16T09:29:01;97440.72;;;13.73;85.36
56719;BME280;42597;40.636;0.278;2024-02-16T09:31:27;97439.94;;;13.73;88.90
56719;BME280;42597;40.636;0.278;2024-02-16T09:33:53;97434.16;;;14.40;89.45
56719;BME280;42597;40.636;0.278;2024-02-16T09:36:19;97436.59;;;14.25;87.73
56719;BME280;42597;40.636;0.278;2024-02-16T09:38:44;97438.59;;;14.28;90.89
56719;BME280;42597;40.636;0.278;2024-02-16T09:41:10;97432.56;;;14.39;87.88
56719;BME280;42597;40.636;0.278;2024-02-16T09:43:37;97423.63;;;14.61;86.73
56719;BME280;42597;40.636;0.278;2024-02-16T09:46:05;97441.75;;;14.76;81.81
56719;BME280;42597;40.636;0.278;2024-02-16T09:48:30;97437.63;;;14.17;85.91
56719;BME280;42597;40.636;0.278;2024-02-16T09:50:57;97441.63;;;14.00;85.99
56719;BME280;42597;40.636;0.278;2024-02-16T09:53:28;97446.72;;;13.44;88.79
56719;BME280;42597;40.636;0.278;2024-02-16T09:55:54;97426.97;;;14.28;88.11
56719;BME280;42597;40.636;0.278;2024-02-16T09:58:20;97425.34;;;14.23;84.73
56719;BME280;42597;40.636;0.278;2024-02-16T10:00:53;97435.44;;;13.42;87.16
56719;BME280;42597;40.636;0.278;2024-02-16T10:03:30;97431.16;;;13.79;87.00
56719;BME280;42597;40.636;0.278;2024-02-16T10:06:09;97433.41;;;14.20;87.81
56719;BME280;42597;40.636;0.278;2024-02-16T10:08:46;97436.78;;;14.13;84.76
56719;BME280;42597;40.636;0.278;2024-02-16T10:11:14;97430.81;;;14.73;87.21
56719;BME280;42597;40.636;0.278;2024-02-16T10:13:40;97433.56;;;13.65;87.64
56719;BME280;42597;40.636;0.278;2024-02-16T10:16:07;97447.53;;;14.06;86.66
56719;BME280;42597;40.636;0.278;2024-02-16T10:18:35;97444.00;;;13.44;88.53
56719;BME280;42597;40.636;0.278;2024-02-16T10:21:01;97444.22;;;14.16;85.43
56719;BME280;42597;40.636;0.278;2024-02-16T10:23:27;97450.50;;;14.20;89.92
56719;BME280;42597;40.636;0.278;2024-02-16T10:25:54;97438.59;;;14.74;86.87
56719;BME280;42597;40.636;0.278;2024-02-16T10:28:20;97449.88;;;13.65;83.70
56719;BME280;42597;40.636;0.278;2024-02-16T10:30:58;97454.25;;;14.12;87.11
56719;BME280;42597;40.636;0.278;2024-02-16T10:33:27;97460.00;;;13.88;83.67
56719;BME280;42597;40.636;0.278;2024-02-16T10:35:55;97461.50;;;13.27;83.63
56719;BME280;42597;40.636;0.278;2024-02-16T10:38:21;97476.16;;;14.00;86.24
56719;BME280;42597;40.636;0.278;2024-02-16T10:40:48;97484.94;;;13.35;86.58
56719;BME280;42597;40.636;0.278;2024-02-16T10:43:17;97479.69;;;14.23;84.71
56719;BME280;42597;40.636;0.278;2024-02-16T10:45:43;97503.84;;;14.28;86.66
56719;BME280;42597;40.636;0.278;2024-02-16T10:48:10;97508.72;;;14.19;87.21
56719;BME280;42597;40.636;0.278;2024-02-16T10:50:37;97509.13;;;14.21;83.00
56719;BME280;42597;40.636;0.278;2024-02-16T10:53:21;97520.88;;;13.48;86.18
56719;BME280;42597;40.636;0.278;2024-02-16T10:55:49;97525.16;;;13.49;87.47
56719;BME280;42597;40.636;0.278;2024-02-16T10:58:17;97536.69;;;14.00;88.29
56719;BME280;42597;40.636;0.278;2024-02-16T11:00:55;97520.31;;;13.97;86.18
56719;BME280;42597;40.636;0.278;2024-02-16T11:03:26;97524.81;;;14.28;84.08
56719;BME280;42597;40.636;0.278;2024-02-16T11:05:52;97532.34;;;13.96;85.54
56719;BME280;42597;40.636;0.278;2024-02-16T11:08:19;97530.41;;;14.39;88.45
56719;BME280;42597;40.636;0.278;2024-02-16T11:10:55;97512.34;;;14.27;83.84
56719;BME280;42597;40.636;0.278;2024-02-16T11:13:31;97524.91;;;14.12;86.04
56719;BME280;42597;40.636;0.278;2024-02-16T11:16:01;97513.72;;;14.17;85.38
56719;BME280;42597;40.636;0.278;2024-02-16T11:18:29;97505.72;;;14.05;87.00
56719;BME280;42597;40.636;0.278;2024-02-16T11:20:55;97529.75;;;14.03;85.46
56719;BME280;42597;40.636;0.278;2024-02-16T11:23:28;97514.94;;;14.43;86.73
56719;BME280;42597;40.636;0.278;2024-02-16T11:26:01;97523.81;;;13.78;86.78
56719;BME280;42597;40.636;0.278;2024-02-16T11:28:30;97531.56;;;13.95;87.06
56719;BME280;42597;40.636;0.278;2024-02-16T11:30:56;97529.59;;;13.57;88.86
56719;BME280;42597;40.636;0.278;2024-02-16T11:33:22;97533.03;;;13.73;86.55
56719;BME280;42597;40.636;0.278;2024-02-16T11:36:01;97542.97;;;13.66;89.79
56719;BME280;42597;40.636;0.278;2024-02-16T11:38:27;97543.13;;;13.73;86.08
56719;BME280;42597;40.636;0.278;2024-02-16T11:40:56;97534.59;;;13.74;88.57
56719;BME280;42597;40.636;0.278;2024-02-16T11:43:23;97543.91;;;14.12;88.87
56719;BME280;42597;40.636;0.278;2024-02-16T11:45:48;97544.75;;;13.77;88.60
56719;BME280;42597;40.636;0.278;2024-02-16T11:48:19;97541.06;;;13.15;88.31
56719;BME280;42597;40.636;0.278;2024-02-16T11:50:46;97535.34;;;13.71;89.00
56719;BME280;42597;40.636;0.278;2024-02-16T11:53:17;97514.13;;;12.91;90.95
56719;BME280;42597;40.636;0.278;2024-02-16T11:55:48;97530.16;;;13.66;87.68
56719;BME280;42597;40.636;0.278;2024-02-16T11:58:16;97536.91;;;13.72;86.84
56719;BME280;42597;40.636;0.278;2024-02-16T12:00:42;97532.19;;;14.08;84.79
56719;BME280;42597;40.636;0.278;2024-02-16T12:03:08;97529.25;;;13.78;85.79
56719;BME280;42597;40.636;0.278;2024-02-16T12:05:34;97526.09;;;14.15;88.95
56719;BME280;42597;40.636;0.278;2024-02-16T12:07:59;97534.84;;;13.85;90.61
56719;BME280;42597;40.636;0.278;2024-02-16T12:10:25;97533.63;;;13.28;91.99
56719;BME280;42597;40.636;0.278;2024-02-16T12:12:52;97539.06;;;12.96;89.81
56719;BME280;42597;40.636;0.278;2024-02-16T12:15:18;97530.91;;;14.02;86.02
56719;BME280;42597;40.636;0.278;2024-02-16T12:17:45;97545.25;;;13.64;88.96
56719;BME280;42597;40.636;0.278;2024-02-16T12:20:11;97531.72;;;13.48;87.91
56719;BME280;42597;40.636;0.278;2024-02-16T12:22:40;97551.34;;;13.96;86.86
56719;BME280;42597;40.636;0.278;2024-02-16T12:25:06;97538.72;;;13.49;90.64
56719;BME280;42597;40.636;0.278;2024-02-16T12:27:34;97555.94;;;13.92;86.85
56719;BME280;42597;40.636;0.278;2024-02-16T12:29:59;97554.31;;;13.52;88.73
56719;BME280;42597;40.636;0.278;2024-02-16T12:32:25;97548.03;;;14.25;85.70
56719;BME280;42597;40.636;0.278;2024-02-16T12:34:50;97547.59;;;13.65;88.45
56719;BME280;42597;40.636;0.278;2024-02-16T12:37:16;97543.19;;;12.74;94.39
56719;BME280;42597;40.636;0.278;2024-02-16T12:39:43;97552.06;;;13.22;89.85
56719;BME280;42597;40.636;0.278;2024-02-16T12:42:10;97562.59;;;13.08;93.36
56719;BME280;42597;40.636;0.278;2024-02-16T12:44:37;97570.25;;;13.53;91.39
56719;BME280;42597;40.636;0.278;2024-02-16T12:47:03;97561.03;;;13.23;92.19
56719;BME280;42597;40.636;0.278;2024-02-16T12:49:28;97554.78;;;14.12;89.84
56719;BME280;42597;40.636;0.278;2024-02-16T12:51:54;97577.44;;;13.81;88.97
56719;BME280;42597;40.636;0.278;2024-02-16T12:54:19;97562.22;;;13.96;90.40
56719;BME280;42597;40.636;0.278;2024-02-16T12:56:46;97571.47;;;13.56;89.48